Time;durP1;ratioP1;P1;durP2;ratioP2;P2;SDS_P1;SDS_P2;PMS_P1;PMS_P2;Temp;Humidity;BMP_temperature;BMP_pressure;BME280_temperature;BME280_humidity;BME280_pressure;Samples;Min_cycle;Max_cycle;Signal;HPM_P1;HPM_P2
2023/08/15 00:01:58;;;;;;;10.05;7.47;;;19.80;99.90;;;;;;5011425;28;20105;-62
2023/08/15 00:04:24;;;;;;;9.15;7.10;;;19.80;99.90;;;;;;4994883;28;20077;-62
2023/08/15 00:06:50;;;;;;;11.00;7.10;;;19.80;99.90;;;;;;5011635;28;20054;-62
2023/08/15 00:09:16;;;;;;;10.85;7.28;;;19.70;99.90;;;;;;5011749;28;20534;-63
2023/08/15 00:11:43;;;;;;;12.57;6.72;;;19.80;99.90;;;;;;4993636;28;20046;-62
2023/08/15 00:14:11;;;;;;;12.13;6.95;;;19.70;99.90;;;;;;4994415;28;20060;-62
2023/08/15 00:16:37;;;;;;;11.60;7.13;;;19.80;99.90;;;;;;5011257;28;20461;-62
2023/08/15 00:19:03;;;;;;;11.35;7.10;;;19.80;99.90;;;;;;5011852;28;20107;-62
2023/08/15 00:21:29;;;;;;;10.85;6.75;;;19.80;99.90;;;;;;5011445;28;20288;-62
2023/08/15 00:24:05;;;;;;;10.70;7.53;;;19.70;99.90;;;;;;5011999;28;20054;-61
2023/08/15 00:26:32;;;;;;;12.10;7.20;;;19.80;99.90;;;;;;5011655;28;20343;-62
2023/08/15 00:28:58;;;;;;;9.60;7.55;;;19.70;99.90;;;;;;5011754;28;20050;-62
2023/08/15 00:31:25;;;;;;;9.30;7.47;;;19.80;99.90;;;;;;5011362;28;20395;-61
2023/08/15 00:33:51;;;;;;;13.90;7.55;;;19.70;99.90;;;;;;5011768;28;20111;-61
2023/08/15 00:36:17;;;;;;;12.20;7.55;;;19.80;99.90;;;;;;5011098;28;20414;-62
2023/08/15 00:38:44;;;;;;;9.80;7.03;;;19.80;99.90;;;;;;5011248;28;20485;-62
2023/08/15 00:41:11;;;;;;;11.18;8.02;;;19.80;99.90;;;;;;4993580;28;20061;-62
2023/08/15 00:43:37;;;;;;;11.73;7.53;;;19.80;99.90;;;;;;5011219;28;20351;-61
2023/08/15 00:46:06;;;;;;;9.95;7.25;;;19.80;99.90;;;;;;4992227;28;20046;-61
2023/08/15 00:48:34;;;;;;;13.50;8.10;;;19.80;99.90;;;;;;4992026;28;20062;-61
2023/08/15 00:51:02;;;;;;;13.95;7.97;;;19.80;99.90;;;;;;4973711;28;20058;-62
2023/08/15 00:53:32;;;;;;;10.02;7.85;;;19.80;99.90;;;;;;4991651;28;20062;-62
2023/08/15 00:55:59;;;;;;;11.07;7.88;;;19.70;99.90;;;;;;4974215;28;20057;-62
2023/08/15 00:58:27;;;;;;;9.73;7.30;;;19.80;99.90;;;;;;4991960;28;20065;-62
2023/08/15 01:00:53;;;;;;;10.45;7.90;;;19.70;99.90;;;;;;4991210;28;20058;-62
2023/08/15 01:03:20;;;;;;;8.95;8.05;;;19.70;99.90;;;;;;4991798;28;20054;-62
2023/08/15 01:05:48;;;;;;;10.40;7.93;;;19.70;99.90;;;;;;4990847;28;20090;-62
2023/08/15 01:08:16;;;;;;;10.35;8.32;;;19.60;99.90;;;;;;4974197;28;20050;-62
2023/08/15 01:10:43;;;;;;;12.70;8.07;;;19.60;99.90;;;;;;4973524;28;20152;-62
2023/08/15 01:13:21;;;;;;;8.60;7.47;;;19.60;99.90;;;;;;4991798;28;20054;-62
2023/08/15 01:15:50;;;;;;;9.98;7.93;;;19.60;99.90;;;;;;4991475;28;20463;-62
2023/08/15 01:18:31;;;;;;;10.48;8.32;;;19.60;99.90;;;;;;4991262;28;20517;-61
2023/08/15 01:20:59;;;;;;;11.65;8.93;;;19.50;99.90;;;;;;4990891;28;20058;-62
2023/08/15 01:23:42;;;;;;;13.98;8.57;;;19.50;99.90;;;;;;4991672;28;20058;-62
2023/08/15 01:26:08;;;;;;;11.40;9.18;;;19.60;99.90;;;;;;4973687;28;20054;-62
2023/08/15 01:28:34;;;;;;;13.80;8.23;;;19.50;99.90;;;;;;4991348;28;20081;-61
2023/08/15 01:31:20;;;;;;;12.32;9.45;;;19.50;99.90;;;;;;4990685;28;20172;-62
2023/08/15 01:34:06;;;;;;;14.23;9.98;;;19.50;99.90;;;;;;4991714;28;20042;-61
2023/08/15 01:36:39;;;;;;;13.82;9.73;;;19.50;99.90;;;;;;4990873;28;20054;-62
2023/08/15 01:39:07;;;;;;;15.20;11.07;;;19.60;99.90;;;;;;4991022;28;20429;-62
2023/08/15 01:41:39;;;;;;;17.80;10.77;;;19.50;99.90;;;;;;4990430;28;20386;-61
2023/08/15 01:44:11;;;;;;;16.85;11.20;;;19.50;99.90;;;;;;4974073;28;20419;-62
2023/08/15 01:46:37;;;;;;;13.57;10.50;;;19.60;99.90;;;;;;4990899;28;20061;-62
2023/08/15 01:49:04;;;;;;;13.27;10.88;;;19.60;99.90;;;;;;4990920;28;20050;-59
2023/08/15 01:51:30;;;;;;;15.30;11.23;;;19.60;99.90;;;;;;4990765;28;20046;-61
2023/08/15 01:53:56;;;;;;;13.88;10.50;;;19.50;99.90;;;;;;4991398;28;20109;-61
2023/08/15 01:56:23;;;;;;;13.15;11.13;;;19.50;99.90;;;;;;4990807;28;20069;-61
2023/08/15 01:58:50;;;;;;;15.25;12.27;;;19.50;99.90;;;;;;4991086;28;20070;-60
2023/08/15 02:01:16;;;;;;;14.48;11.73;;;19.60;99.90;;;;;;4990814;28;20423;-60
2023/08/15 02:03:42;;;;;;;14.52;11.63;;;19.60;99.90;;;;;;4993868;28;20050;-61
2023/08/15 02:06:08;;;;;;;15.77;12.68;;;19.60;99.90;;;;;;4994436;28;20051;-62
2023/08/15 02:08:34;;;;;;;14.90;12.10;;;19.70;99.90;;;;;;4994958;28;20058;-61
2023/08/15 02:11:01;;;;;;;15.48;11.05;;;19.70;99.90;;;;;;4977246;28;20355;-61
2023/08/15 02:13:30;;;;;;;14.30;12.15;;;19.70;99.90;;;;;;4994765;28;20130;-61
2023/08/15 02:15:57;;;;;;;16.83;12.80;;;19.80;99.90;;;;;;4994322;28;20054;-60
2023/08/15 02:18:29;;;;;;;14.10;11.95;;;19.80;99.90;;;;;;4977404;28;20364;-61
2023/08/15 02:20:56;;;;;;;17.50;13.15;;;19.80;99.90;;;;;;4994051;28;20058;-61
2023/08/15 02:23:22;;;;;;;13.90;11.98;;;19.80;99.90;;;;;;4994358;28;20046;-61
2023/08/15 02:25:49;;;;;;;14.80;12.02;;;19.70;99.90;;;;;;4993660;28;20402;-62
2023/08/15 02:28:15;;;;;;;15.75;12.57;;;19.70;99.90;;;;;;4977041;28;20433;-61
2023/08/15 02:30:41;;;;;;;15.25;11.23;;;19.60;99.90;;;;;;4994087;28;20050;-61
2023/08/15 02:33:08;;;;;;;13.30;11.43;;;19.60;99.90;;;;;;4977522;28;20553;-61
2023/08/15 02:35:39;;;;;;;17.38;11.70;;;19.50;99.90;;;;;;4994202;28;20046;-60
2023/08/15 02:38:05;;;;;;;13.50;11.20;;;19.50;99.90;;;;;;4977084;28;20496;-60
2023/08/15 02:40:31;;;;;;;14.57;11.48;;;19.40;99.90;;;;;;4993814;28;20108;-61
2023/08/15 02:42:57;;;;;;;13.73;11.57;;;19.50;99.90;;;;;;4994280;28;20054;-61
2023/08/15 02:45:24;;;;;;;15.75;11.43;;;19.60;99.90;;;;;;4989363;28;20054;-61
2023/08/15 02:47:51;;;;;;;13.75;10.70;;;19.50;99.90;;;;;;5013132;28;20454;-61
2023/08/15 02:50:17;;;;;;;13.38;11.15;;;19.50;99.90;;;;;;5012118;28;20049;-61
2023/08/15 02:52:43;;;;;;;13.18;10.05;;;19.40;99.90;;;;;;4993833;28;20181;-61
2023/08/15 02:55:10;;;;;;;13.32;9.95;;;19.40;99.90;;;;;;4993290;28;20042;-60
2023/08/15 02:57:37;;;;;;;15.98;10.85;;;19.40;99.90;;;;;;4993314;28;20109;-61
2023/08/15 03:00:04;;;;;;;14.98;10.40;;;19.40;99.90;;;;;;4993878;28;20121;-61
2023/08/15 03:02:31;;;;;;;13.88;10.45;;;19.40;99.90;;;;;;4976928;28;20058;-61
2023/08/15 03:04:58;;;;;;;12.32;9.93;;;19.50;99.90;;;;;;4976465;28;20066;-60
2023/08/15 03:07:25;;;;;;;12.35;9.57;;;19.50;99.90;;;;;;4993580;28;20062;-61
2023/08/15 03:09:51;;;;;;;11.20;8.82;;;19.50;99.90;;;;;;4993465;28;20054;-62
2023/08/15 03:12:17;;;;;;;15.35;9.32;;;19.50;99.90;;;;;;5010094;28;20046;-61
2023/08/15 03:14:45;;;;;;;16.55;9.68;;;19.50;99.90;;;;;;4995403;28;20069;-61
2023/08/15 03:17:11;;;;;;;14.20;8.88;;;19.60;99.90;;;;;;5012659;28;20056;-62
2023/08/15 03:19:37;;;;;;;13.50;9.25;;;19.50;99.90;;;;;;4995764;28;20116;-61
2023/08/15 03:22:06;;;;;;;12.60;9.07;;;19.60;99.90;;;;;;4980581;28;20153;-61
2023/08/15 03:24:33;;;;;;;11.20;9.13;;;19.50;99.90;;;;;;4993048;28;20073;-62
2023/08/15 03:26:59;;;;;;;10.05;8.75;;;19.50;99.90;;;;;;4993095;28;20050;-61
2023/08/15 03:29:25;;;;;;;13.20;9.65;;;19.50;99.90;;;;;;4993213;28;20070;-60
2023/08/15 03:31:55;;;;;;;14.68;9.30;;;19.50;99.90;;;;;;5006209;28;20092;-62
2023/08/15 03:34:22;;;;;;;13.18;8.98;;;19.50;99.90;;;;;;4995680;28;20104;-61
2023/08/15 03:36:48;;;;;;;10.23;9.15;;;19.50;99.90;;;;;;5011932;28;20071;-61
2023/08/15 03:39:14;;;;;;;11.65;9.07;;;19.50;99.90;;;;;;5012758;28;20453;-61
2023/08/15 03:41:41;;;;;;;12.68;9.25;;;19.40;99.90;;;;;;4994335;28;20053;-61
2023/08/15 03:44:08;;;;;;;10.05;9.02;;;19.40;99.90;;;;;;5012632;28;20046;-62
2023/08/15 03:46:35;;;;;;;12.77;8.63;;;19.40;99.90;;;;;;5012397;28;20053;-61
2023/08/15 03:49:01;;;;;;;13.55;9.52;;;19.40;99.90;;;;;;4995228;28;20061;-61
2023/08/15 03:51:28;;;;;;;12.77;9.07;;;19.30;99.90;;;;;;5001972;28;20064;-61
2023/08/15 03:53:54;;;;;;;11.27;8.18;;;19.30;99.90;;;;;;4975867;28;20065;-61
2023/08/15 03:56:20;;;;;;;13.52;8.18;;;19.40;99.90;;;;;;4992233;28;20451;-62
2023/08/15 03:58:50;;;;;;;13.98;8.13;;;19.30;99.90;;;;;;4992881;28;20046;-61
2023/08/15 04:01:16;;;;;;;14.23;8.82;;;19.30;99.90;;;;;;5000790;28;20046;-61
2023/08/15 04:03:42;;;;;;;12.50;8.63;;;19.30;99.90;;;;;;5012307;28;20100;-61
2023/08/15 04:06:08;;;;;;;12.98;8.45;;;19.30;99.90;;;;;;5011529;28;20116;-61
2023/08/15 04:08:34;;;;;;;12.82;8.25;;;19.30;99.90;;;;;;5012248;28;20138;-61
2023/08/15 04:11:01;;;;;;;12.25;8.30;;;19.30;99.90;;;;;;5005742;28;20070;-61
2023/08/15 04:13:27;;;;;;;11.35;7.93;;;19.30;99.90;;;;;;4992219;28;20459;-61
2023/08/15 04:15:54;;;;;;;12.70;8.07;;;19.30;99.90;;;;;;4992360;28;20109;-61
2023/08/15 04:18:20;;;;;;;9.18;6.88;;;19.30;99.90;;;;;;4986765;28;20046;-62
2023/08/15 04:20:47;;;;;;;9.52;6.93;;;19.20;99.90;;;;;;4991428;28;20054;-61
2023/08/15 04:23:13;;;;;;;10.38;6.90;;;19.20;99.90;;;;;;4975176;28;20077;-62
2023/08/15 04:25:40;;;;;;;9.48;6.82;;;19.20;99.90;;;;;;4991300;28;20056;-61
2023/08/15 04:28:28;;;;;;;8.90;6.80;;;19.20;99.90;;;;;;4975027;28;20097;-62
2023/08/15 04:30:54;;;;;;;10.60;6.93;;;19.20;99.90;;;;;;4996987;28;20052;-61
2023/08/15 04:33:21;;;;;;;8.63;6.60;;;19.10;99.90;;;;;;5011817;28;20410;-61
2023/08/15 04:35:47;;;;;;;9.50;5.93;;;19.10;99.90;;;;;;5011152;28;20521;-62
2023/08/15 04:38:14;;;;;;;11.57;7.15;;;19.10;99.90;;;;;;5011971;28;20354;-61
2023/08/15 04:40:40;;;;;;;13.15;6.97;;;19.20;99.90;;;;;;5008300;28;20117;-62
2023/08/15 04:43:07;;;;;;;10.90;6.40;;;19.10;99.90;;;;;;4992220;28;20054;-61
2023/08/15 04:45:43;;;;;;;9.13;5.95;;;19.10;99.90;;;;;;4990151;28;20058;-61
2023/08/15 04:48:11;;;;;;;10.63;6.50;;;19.00;99.90;;;;;;4991255;28;20069;-61
2023/08/15 04:50:37;;;;;;;9.52;6.45;;;19.10;99.90;;;;;;4973905;28;20076;-61
2023/08/15 04:53:05;;;;;;;9.95;5.70;;;19.10;99.90;;;;;;4973663;28;20038;-61
2023/08/15 04:55:31;;;;;;;10.13;5.90;;;19.00;99.90;;;;;;4998018;28;20478;-62
2023/08/15 04:57:57;;;;;;;9.60;5.93;;;18.90;99.90;;;;;;4999911;28;20064;-62
2023/08/15 05:00:24;;;;;;;7.93;5.32;;;19.00;99.90;;;;;;4996266;28;20042;-62
2023/08/15 05:02:50;;;;;;;7.22;5.22;;;19.00;99.90;;;;;;5011073;28;20050;-62
2023/08/15 05:05:16;;;;;;;8.18;5.43;;;19.00;99.90;;;;;;5008141;28;20342;-62
2023/08/15 05:07:43;;;;;;;6.78;5.22;;;19.00;99.90;;;;;;4995192;28;20046;-61
2023/08/15 05:10:09;;;;;;;8.15;5.63;;;18.90;99.90;;;;;;4992637;28;20077;-61
2023/08/15 05:12:37;;;;;;;7.53;5.15;;;19.00;99.90;;;;;;4991271;28;20076;-61
2023/08/15 05:15:07;;;;;;;8.23;4.60;;;18.90;99.90;;;;;;4991454;28;20050;-62
2023/08/15 05:17:35;;;;;;;9.98;5.03;;;18.90;99.90;;;;;;4986597;28;20057;-62
2023/08/15 05:20:03;;;;;;;6.97;5.10;;;18.90;99.90;;;;;;4993209;28;20050;-61
2023/08/15 05:22:30;;;;;;;7.15;4.57;;;18.90;99.90;;;;;;5002570;28;20119;-61
2023/08/15 05:24:56;;;;;;;10.27;5.20;;;18.90;99.90;;;;;;4991916;28;20121;-61
2023/08/15 05:27:22;;;;;;;8.63;5.20;;;18.90;99.90;;;;;;4990221;28;20069;-62
2023/08/15 05:29:48;;;;;;;7.90;5.88;;;18.90;99.90;;;;;;4997657;28;20487;-62
2023/08/15 05:32:15;;;;;;;11.80;5.72;;;18.80;99.90;;;;;;4994303;28;20054;-62
2023/08/15 05:34:41;;;;;;;9.27;5.53;;;18.90;99.90;;;;;;4990258;28;20471;-62
2023/08/15 05:37:07;;;;;;;7.88;5.25;;;18.90;99.90;;;;;;4989584;28;20480;-62
2023/08/15 05:39:33;;;;;;;9.93;5.18;;;18.90;99.90;;;;;;4995219;28;20046;-62
2023/08/15 05:42:00;;;;;;;9.15;5.50;;;18.90;99.90;;;;;;5024075;28;20050;-62
2023/08/15 05:44:26;;;;;;;9.18;5.45;;;18.80;99.90;;;;;;5009677;28;20117;-62
2023/08/15 05:46:52;;;;;;;10.02;5.57;;;19.00;99.90;;;;;;4994821;28;20462;-62
2023/08/15 05:49:18;;;;;;;12.57;6.07;;;19.00;99.90;;;;;;4977768;28;20404;-61
2023/08/15 05:51:45;;;;;;;7.50;5.40;;;19.20;99.90;;;;;;4994744;28;20058;-62
2023/08/15 05:54:11;;;;;;;10.00;6.05;;;19.20;99.90;;;;;;4995300;28;20053;-62
2023/08/15 05:56:37;;;;;;;12.40;6.05;;;19.30;99.90;;;;;;4994476;28;20117;-61
2023/08/15 05:59:11;;;;;;;8.70;6.07;;;20.00;99.90;;;;;;4994807;28;20065;-61
2023/08/15 06:01:38;;;;;;;7.20;4.72;;;21.30;99.90;;;;;;4977338;28;20149;-62
2023/08/15 06:04:04;;;;;;;7.15;5.07;;;22.20;99.90;;;;;;4994642;28;20050;-61
2023/08/15 06:06:30;;;;;;;8.20;5.00;;;23.10;99.90;;;;;;4993913;28;20054;-61
2023/08/15 06:08:57;;;;;;;8.55;4.85;;;23.50;99.90;;;;;;4994634;28;20058;-62
2023/08/15 06:11:24;;;;;;;8.60;5.05;;;24.10;99.90;;;;;;4976828;28;20054;-62
2023/08/15 06:13:50;;;;;;;8.48;4.70;;;24.10;99.90;;;;;;4976860;28;20117;-63
2023/08/15 06:16:16;;;;;;;8.63;5.25;;;24.30;99.90;;;;;;4993763;28;20121;-62
2023/08/15 06:18:42;;;;;;;8.68;4.45;;;24.80;99.90;;;;;;4994531;28;20050;-62
2023/08/15 06:21:09;;;;;;;11.25;4.88;;;25.10;99.90;;;;;;4993725;28;20050;-61
2023/08/15 06:23:35;;;;;;;9.25;5.22;;;24.80;99.90;;;;;;4994184;28;20054;-62
2023/08/15 06:26:02;;;;;;;8.35;4.50;;;24.80;99.90;;;;;;4994080;28;20072;-62
2023/08/15 06:28:29;;;;;;;9.13;4.47;;;24.60;99.90;;;;;;4994310;28;20092;-62
2023/08/15 06:30:55;;;;;;;6.93;4.25;;;24.70;99.90;;;;;;4994272;28;20418;-62
2023/08/15 06:33:21;;;;;;;10.98;5.07;;;25.10;99.90;;;;;;4994778;28;20050;-63
2023/08/15 06:35:48;;;;;;;11.05;4.95;;;25.30;99.90;;;;;;4993933;28;20062;-62
2023/08/15 06:38:14;;;;;;;9.35;5.03;;;25.10;99.90;;;;;;4994387;28;20407;-62
2023/08/15 06:40:40;;;;;;;9.73;4.93;;;25.10;99.90;;;;;;4976897;28;20055;-62
2023/08/15 06:43:06;;;;;;;10.27;4.85;;;25.20;99.90;;;;;;4994143;28;20441;-62
2023/08/15 06:45:37;;;;;;;7.38;4.43;;;25.50;99.90;;;;;;4990170;28;20068;-62
2023/08/15 06:48:05;;;;;;;9.05;4.68;;;25.40;99.90;;;;;;4995630;28;20443;-62
2023/08/15 06:50:32;;;;;;;8.68;4.80;;;24.90;99.90;;;;;;5013071;28;20046;-61
2023/08/15 06:52:58;;;;;;;9.70;4.65;;;24.50;99.90;;;;;;5013641;28;20056;-62
2023/08/15 06:55:25;;;;;;;9.65;4.78;;;24.10;99.90;;;;;;5013074;28;20061;-62
2023/08/15 06:57:53;;;;;;;6.32;4.60;;;23.80;99.90;;;;;;4995933;28;20054;-62
2023/08/15 07:00:19;;;;;;;10.05;4.38;;;23.50;99.90;;;;;;5013460;28;20046;-62
2023/08/15 07:02:45;;;;;;;11.48;4.78;;;23.20;99.90;;;;;;5013097;28;20061;-62
2023/08/15 07:05:12;;;;;;;6.53;4.22;;;23.00;99.90;;;;;;5012635;28;20137;-61
2023/08/15 07:07:38;;;;;;;8.63;4.38;;;22.80;99.90;;;;;;5013142;28;20073;-61
2023/08/15 07:10:06;;;;;;;10.20;4.72;;;22.80;99.90;;;;;;5013170;28;20056;-61
2023/08/15 07:12:34;;;;;;;10.52;4.93;;;22.50;99.90;;;;;;4995174;28;20045;-62
2023/08/15 07:15:00;;;;;;;9.50;4.63;;;22.30;99.90;;;;;;4995788;28;20399;-62
2023/08/15 07:17:27;;;;;;;9.80;4.97;;;22.00;99.90;;;;;;5012967;28;20053;-61
2023/08/15 07:19:55;;;;;;;8.65;4.25;;;22.00;99.90;;;;;;5013298;28;20053;-61
2023/08/15 07:22:22;;;;;;;10.65;5.13;;;21.90;99.90;;;;;;5013043;28;20057;-62
2023/08/15 07:24:48;;;;;;;10.20;5.10;;;22.00;99.90;;;;;;4995971;28;20065;-61
2023/08/15 07:27:14;;;;;;;11.52;4.90;;;22.00;99.90;;;;;;5012528;28;20197;-62
2023/08/15 07:29:40;;;;;;;10.73;5.00;;;21.90;99.90;;;;;;5012864;28;20115;-62
2023/08/15 07:32:08;;;;;;;11.95;5.03;;;22.00;99.90;;;;;;4994867;28;20112;-61
2023/08/15 07:34:34;;;;;;;12.30;4.68;;;22.00;99.90;;;;;;5012901;28;20042;-61
2023/08/15 07:37:00;;;;;;;8.63;5.85;;;21.90;99.90;;;;;;5012239;28;20109;-62
2023/08/15 07:39:26;;;;;;;11.98;4.97;;;22.10;99.90;;;;;;5012887;28;20049;-61
2023/08/15 07:41:53;;;;;;;11.57;6.15;;;22.40;99.90;;;;;;5012368;28;20045;-62
2023/08/15 07:44:31;;;;;;;11.35;4.90;;;22.30;99.90;;;;;;4995094;28;20058;-62
2023/08/15 07:46:57;;;;;;;12.38;5.63;;;22.60;99.90;;;;;;5012332;28;20076;-62
2023/08/15 07:49:25;;;;;;;10.95;5.68;;;22.60;99.90;;;;;;4995196;28;20061;-62
2023/08/15 07:51:52;;;;;;;9.68;5.72;;;22.70;99.90;;;;;;4983495;28;20372;-62
2023/08/15 07:54:19;;;;;;;10.35;5.85;;;23.00;99.90;;;;;;4975760;28;20050;-62
2023/08/15 07:56:45;;;;;;;11.88;5.85;;;22.90;99.90;;;;;;4975380;28;20053;-62
2023/08/15 07:59:12;;;;;;;9.27;6.07;;;23.00;99.90;;;;;;4975209;28;20050;-61
2023/08/15 08:01:38;;;;;;;7.00;5.68;;;23.20;99.90;;;;;;5001349;28;20042;-62
2023/08/15 08:04:05;;;;;;;13.80;6.63;;;23.30;99.90;;;;;;4994641;28;20053;-62
2023/08/15 08:06:31;;;;;;;10.18;6.28;;;23.30;99.90;;;;;;5011752;28;20049;-62
2023/08/15 08:08:57;;;;;;;7.72;5.60;;;23.10;99.90;;;;;;5012162;28;20061;-62
2023/08/15 08:11:23;;;;;;;10.18;7.45;;;23.30;99.90;;;;;;5004490;28;20057;-61
2023/08/15 08:13:50;;;;;;;10.25;6.03;;;23.50;99.90;;;;;;4992627;28;20046;-63
2023/08/15 08:16:17;;;;;;;11.63;6.00;;;23.50;99.90;;;;;;4974738;28;20046;-62
2023/08/15 08:18:43;;;;;;;9.10;5.90;;;23.40;99.90;;;;;;4975232;28;20140;-62
2023/08/15 08:21:11;;;;;;;8.40;5.00;;;23.40;99.90;;;;;;4979732;28;20054;-61
2023/08/15 08:23:37;;;;;;;9.45;5.63;;;23.50;99.90;;;;;;5011960;28;20080;-62
2023/08/15 08:26:03;;;;;;;9.93;4.97;;;23.40;99.90;;;;;;4994328;28;20049;-62
2023/08/15 08:28:30;;;;;;;8.48;5.55;;;23.40;99.90;;;;;;5011631;28;20049;-62
2023/08/15 08:30:58;;;;;;;6.35;4.38;;;23.60;99.90;;;;;;4990688;28;20061;-62
2023/08/15 08:33:28;;;;;;;9.68;4.07;;;24.00;99.90;;;;;;4992375;28;20046;-62
2023/08/15 08:35:56;;;;;;;8.13;3.90;;;24.10;99.90;;;;;;4974408;28;20105;-63
2023/08/15 08:38:22;;;;;;;6.30;3.65;;;24.00;99.90;;;;;;4992011;28;20073;-63
2023/08/15 08:40:48;;;;;;;6.88;2.83;;;24.10;99.90;;;;;;4994170;28;20101;-62
2023/08/15 08:43:20;;;;;;;6.05;2.35;;;24.00;99.90;;;;;;5010831;28;20079;-62
2023/08/15 08:45:49;;;;;;;8.52;3.15;;;23.90;99.90;;;;;;5010470;28;20137;-62
2023/08/15 08:48:16;;;;;;;6.03;2.85;;;23.90;99.90;;;;;;4993789;28;20429;-62
2023/08/15 08:50:45;;;;;;;8.95;2.75;;;24.10;99.90;;;;;;5010961;28;20054;-62
2023/08/15 08:53:11;;;;;;;6.85;2.45;;;24.20;99.90;;;;;;5010982;28;20120;-62
2023/08/15 08:55:39;;;;;;;6.28;2.63;;;24.40;99.90;;;;;;5010461;28;20053;-62
2023/08/15 08:58:09;;;;;;;7.10;2.92;;;24.60;99.90;;;;;;5011164;28;20149;-63
2023/08/15 09:00:36;;;;;;;5.15;2.75;;;24.40;99.90;;;;;;5010741;28;20041;-63
2023/08/15 09:03:03;;;;;;;5.85;2.92;;;24.10;99.90;;;;;;4993781;28;20112;-63
2023/08/15 09:05:29;;;;;;;9.50;3.28;;;23.90;99.90;;;;;;5010552;28;20057;-63
2023/08/15 09:07:57;;;;;;;10.13;3.15;;;23.70;99.90;;;;;;5011111;28;20053;-63
2023/08/15 09:10:23;;;;;;;7.03;3.00;;;23.60;99.90;;;;;;4993537;28;20136;-62
2023/08/15 09:12:50;;;;;;;8.23;3.42;;;23.50;99.90;;;;;;5010168;28;20045;-62
2023/08/15 09:15:16;;;;;;;7.25;3.53;;;23.40;99.90;;;;;;4993149;28;20403;-62
2023/08/15 09:17:44;;;;;;;8.68;4.32;;;23.40;99.90;;;;;;4993514;28;20053;-63
2023/08/15 09:20:12;;;;;;;8.13;3.72;;;23.30;99.90;;;;;;5010829;28;20127;-61
2023/08/15 09:22:45;;;;;;;8.10;3.67;;;23.10;99.90;;;;;;5010424;28;20116;-62
2023/08/15 09:25:17;;;;;;;8.43;3.78;;;23.00;99.90;;;;;;4992711;28;20477;-62
2023/08/15 09:27:44;;;;;;;7.88;3.83;;;22.90;99.90;;;;;;4993507;28;20053;-63
2023/08/15 09:30:13;;;;;;;8.63;3.47;;;23.00;99.90;;;;;;4993572;28;20061;-63
2023/08/15 09:32:41;;;;;;;6.95;3.67;;;23.10;99.90;;;;;;5010287;28;20056;-62
2023/08/15 09:35:12;;;;;;;8.38;3.80;;;23.10;99.90;;;;;;5010393;28;20049;-62
2023/08/15 09:37:45;;;;;;;7.75;3.42;;;23.40;99.90;;;;;;4993349;28;20053;-61
2023/08/15 09:40:22;;;;;;;10.43;3.70;;;23.40;99.90;;;;;;5010643;28;20386;-62
2023/08/15 09:42:48;;;;;;;7.93;3.40;;;23.50;99.90;;;;;;4992997;28;20068;-61
2023/08/15 09:45:16;;;;;;;8.52;3.08;;;23.40;99.90;;;;;;4998215;28;20447;-61
2023/08/15 09:47:44;;;;;;;6.43;2.95;;;23.20;99.90;;;;;;4973497;28;20046;-61
2023/08/15 09:50:13;;;;;;;5.82;2.60;;;23.40;99.90;;;;;;4973314;28;20051;-62
2023/08/15 09:52:41;;;;;;;10.25;3.03;;;23.40;99.90;;;;;;4990407;28;20095;-61
2023/08/15 09:55:10;;;;;;;7.57;3.13;;;23.60;99.90;;;;;;4973265;28;20057;-62
2023/08/15 09:57:38;;;;;;;6.35;3.03;;;23.60;99.90;;;;;;4990689;28;20173;-62
2023/08/15 10:00:08;;;;;;;5.97;2.75;;;23.70;99.90;;;;;;4991017;28;20046;-62
2023/08/15 10:02:43;;;;;;;8.10;3.00;;;24.00;99.90;;;;;;4973458;28;20433;-62
2023/08/15 10:05:11;;;;;;;9.75;3.53;;;24.20;99.90;;;;;;4972873;28;20465;-61
2023/08/15 10:07:39;;;;;;;6.65;3.10;;;24.10;99.90;;;;;;4990859;28;20112;-62
2023/08/15 10:10:07;;;;;;;7.47;3.60;;;24.20;99.90;;;;;;4990717;28;20047;-62
2023/08/15 10:12:37;;;;;;;9.32;3.47;;;24.10;99.90;;;;;;4972815;28;20054;-61
2023/08/15 10:15:06;;;;;;;7.43;3.50;;;24.00;99.90;;;;;;4973332;28;20046;-62
2023/08/15 10:17:32;;;;;;;5.97;3.55;;;24.10;99.90;;;;;;4973487;28;20452;-62
2023/08/15 10:20:05;;;;;;;9.45;3.97;;;24.00;99.90;;;;;;4990683;28;20087;-62
2023/08/15 10:22:35;;;;;;;8.63;3.80;;;23.80;99.90;;;;;;4957525;28;20058;-62
2023/08/15 10:25:40;;;;;;;11.30;4.18;;;23.70;99.90;;;;;;4976264;28;20050;-62
2023/08/15 10:28:09;;;;;;;8.70;4.07;;;23.60;99.90;;;;;;4993644;28;20220;-62
2023/08/15 10:30:46;;;;;;;7.75;4.05;;;23.50;99.90;;;;;;4976437;28;20109;-62
2023/08/15 10:33:13;;;;;;;7.22;3.88;;;23.50;99.90;;;;;;4976827;28;20050;-62
2023/08/15 10:35:54;;;;;;;7.82;3.58;;;23.70;99.90;;;;;;4976510;28;20046;-61
2023/08/15 10:38:30;;;;;;;6.43;4.15;;;23.80;99.90;;;;;;4976780;28;20105;-61
2023/08/15 10:41:17;;;;;;;8.63;3.90;;;23.80;99.90;;;;;;4960895;28;20145;-62
2023/08/15 10:43:52;;;;;;;9.38;4.68;;;23.90;99.90;;;;;;4976877;28;20066;-61
2023/08/15 10:46:25;;;;;;;11.23;4.38;;;23.80;99.90;;;;;;4993781;28;20090;-61
2023/08/15 10:48:55;;;;;;;10.50;4.63;;;23.70;99.90;;;;;;4993732;28;20555;-62
2023/08/15 10:51:30;;;;;;;10.90;4.32;;;23.50;99.90;;;;;;4975491;28;20042;-61
2023/08/15 10:54:02;;;;;;;9.20;4.85;;;23.50;99.90;;;;;;4993906;28;20054;-61
2023/08/15 10:56:34;;;;;;;8.27;5.22;;;23.20;99.90;;;;;;4993320;28;20113;-61
2023/08/15 10:59:12;;;;;;;14.68;5.65;;;23.10;99.90;;;;;;4993539;28;20070;-61
2023/08/15 11:01:44;;;;;;;13.02;6.10;;;23.20;99.90;;;;;;4976130;28;20473;-62
2023/08/15 11:04:16;;;;;;;10.27;4.82;;;23.40;99.90;;;;;;4993686;28;20054;-61
2023/08/15 11:06:46;;;;;;;9.60;4.93;;;23.60;99.90;;;;;;4975889;28;20046;-62
2023/08/15 11:09:13;;;;;;;11.73;4.60;;;23.40;99.90;;;;;;4959747;28;20056;-62
2023/08/15 11:11:40;;;;;;;11.25;5.15;;;23.60;99.90;;;;;;4975853;28;20403;-62
2023/08/15 11:14:17;;;;;;;7.68;4.40;;;23.40;99.90;;;;;;4992916;28;20471;-61
2023/08/15 11:16:47;;;;;;;8.30;4.80;;;23.50;99.90;;;;;;4975588;28;20046;-62
2023/08/15 11:19:19;;;;;;;8.45;4.63;;;23.50;99.90;;;;;;4976379;28;20295;-62
2023/08/15 11:21:48;;;;;;;9.13;4.68;;;23.60;99.90;;;;;;4992420;28;20074;-63
2023/08/15 11:24:15;;;;;;;11.82;5.07;;;23.70;99.90;;;;;;4975643;28;20051;-62
2023/08/15 11:26:41;;;;;;;10.70;5.53;;;23.60;99.90;;;;;;4992606;28;20057;-63
2023/08/15 11:29:10;;;;;;;6.53;4.78;;;23.70;99.90;;;;;;4992717;28;20062;-62
2023/08/15 11:31:37;;;;;;;11.30;5.30;;;23.70;99.90;;;;;;4974842;28;20109;-62
2023/08/15 11:34:06;;;;;;;9.30;4.97;;;23.80;99.90;;;;;;4975728;28;20062;-62
2023/08/15 11:36:32;;;;;;;13.88;5.47;;;23.80;99.90;;;;;;4992499;28;20061;-62
2023/08/15 11:39:03;;;;;;;11.73;5.57;;;23.60;99.90;;;;;;4975639;28;20070;-62
2023/08/15 11:41:29;;;;;;;12.85;4.65;;;23.60;99.90;;;;;;4975089;28;20113;-62
2023/08/15 11:43:56;;;;;;;9.30;4.47;;;23.50;99.90;;;;;;4975468;28;20124;-62
2023/08/15 11:46:24;;;;;;;7.38;4.40;;;22.90;99.90;;;;;;4992623;28;20050;-62
2023/08/15 11:48:50;;;;;;;7.57;3.90;;;22.70;99.90;;;;;;4975602;28;20081;-61
2023/08/15 11:51:20;;;;;;;6.60;4.18;;;22.80;99.90;;;;;;4992358;28;20046;-62
2023/08/15 11:53:51;;;;;;;8.63;4.10;;;22.80;99.90;;;;;;4975534;28;20260;-62
2023/08/15 11:56:17;;;;;;;7.97;5.00;;;22.80;99.90;;;;;;4992127;28;20050;-62
2023/08/15 11:58:44;;;;;;;10.25;4.63;;;22.50;99.90;;;;;;4992381;28;20089;-62
2023/08/15 12:01:11;;;;;;;9.43;5.03;;;22.60;99.90;;;;;;4975180;28;20057;-61
2023/08/15 12:03:39;;;;;;;8.63;4.18;;;22.50;99.90;;;;;;4959293;28;20058;-61
2023/08/15 12:06:07;;;;;;;8.07;4.50;;;22.70;99.90;;;;;;4991884;28;20113;-63
2023/08/15 12:08:33;;;;;;;8.75;5.28;;;22.50;99.90;;;;;;4992579;28;20057;-62
2023/08/15 12:11:05;;;;;;;7.30;4.40;;;22.50;99.90;;;;;;4992215;28;20061;-61
2023/08/15 12:13:33;;;;;;;8.70;4.32;;;22.50;99.90;;;;;;4992185;28;20113;-62
2023/08/15 12:16:01;;;;;;;10.68;4.30;;;22.30;99.90;;;;;;4991580;28;20395;-62
2023/08/15 12:18:27;;;;;;;8.55;4.68;;;22.40;99.90;;;;;;4992254;28;20113;-62
2023/08/15 12:20:55;;;;;;;11.95;5.22;;;22.40;99.90;;;;;;4991651;28;20057;-62
2023/08/15 12:23:21;;;;;;;8.80;4.95;;;22.40;99.90;;;;;;4975215;28;20080;-62
2023/08/15 12:25:48;;;;;;;7.10;5.25;;;22.50;99.90;;;;;;4974403;28;20054;-61
2023/08/15 12:28:14;;;;;;;8.13;5.00;;;22.50;99.90;;;;;;4974965;28;20050;-61
2023/08/15 12:30:41;;;;;;;8.77;5.43;;;22.70;99.90;;;;;;4991968;28;20050;-62
2023/08/15 12:33:07;;;;;;;11.00;5.85;;;22.60;99.90;;;;;;4991482;28;20054;-62
2023/08/15 12:35:33;;;;;;;11.95;6.03;;;22.70;99.90;;;;;;4991548;28;20038;-62
2023/08/15 12:37:59;;;;;;;10.73;5.97;;;22.70;99.90;;;;;;4991797;28;20596;-61
2023/08/15 12:40:26;;;;;;;9.77;5.38;;;22.80;99.90;;;;;;4991888;28;20056;-62
2023/08/15 12:42:53;;;;;;;9.60;6.00;;;22.90;99.90;;;;;;4974483;28;20454;-63
2023/08/15 12:45:20;;;;;;;8.90;5.47;;;22.90;99.90;;;;;;5003304;28;20050;-62